createdAt,value
2023-03-27T00:00:16.734Z,2.55
2023-03-27T00:02:50.006Z,2.10
2023-03-27T00:05:21.107Z,2.90
2023-03-27T00:07:51.439Z,3.08
2023-03-27T00:10:24.186Z,2.47
2023-03-27T00:12:54.539Z,1.65
2023-03-27T00:15:25.481Z,3.05
2023-03-27T00:17:56.032Z,3.10
2023-03-27T00:20:26.399Z,1.73
2023-03-27T00:22:56.913Z,1.73
2023-03-27T00:25:31.226Z,2.80
2023-03-27T00:28:02.838Z,1.63
2023-03-27T00:30:33.856Z,1.80
2023-03-27T00:33:04.062Z,1.58
2023-03-27T00:35:34.128Z,1.30
2023-03-27T00:38:04.129Z,1.65
2023-03-27T00:40:37.383Z,1.40
2023-03-27T00:43:21.808Z,1.67
2023-03-27T00:45:54.928Z,1.20
2023-03-27T00:48:27.290Z,0.93
2023-03-27T00:50:58.785Z,0.93
2023-03-27T00:53:31.801Z,0.65
2023-03-27T00:56:07.790Z,0.88
2023-03-27T00:58:42.476Z,0.90
2023-03-27T01:01:14.907Z,1.15
2023-03-27T01:03:47.282Z,1.00
2023-03-27T01:06:18.484Z,1.27
2023-03-27T01:08:49.098Z,1.20
2023-03-27T01:11:31.456Z,1.15
2023-03-27T01:14:11.286Z,1.33
2023-03-27T01:16:48.966Z,0.98
2023-03-27T01:19:55.058Z,1.20
2023-03-27T01:22:59.792Z,2.65
2023-03-27T01:25:48.430Z,1.40
2023-03-27T01:28:30.061Z,0.93
2023-03-27T01:31:05.305Z,1.50
2023-03-27T01:33:59.002Z,1.55
2023-03-27T01:36:51.965Z,1.20
2023-03-27T01:39:35.802Z,1.10
2023-03-27T01:42:12.135Z,1.70
2023-03-27T01:44:50.311Z,2.85
2023-03-27T01:47:28.991Z,1.67
2023-03-27T01:50:05.081Z,1.33
2023-03-27T01:52:38.702Z,3.17
2023-03-27T01:55:19.301Z,1.47
2023-03-27T01:58:00.528Z,2.65
2023-03-27T02:00:52.020Z,2.03
2023-03-27T02:03:27.023Z,2.90
2023-03-27T02:06:01.063Z,2.58
2023-03-27T02:08:37.815Z,1.73
2023-03-27T02:11:10.414Z,2.60
2023-03-27T02:13:44.194Z,2.10
2023-03-27T02:16:18.745Z,2.33
2023-03-27T02:21:23.649Z,1.70
2023-03-27T02:23:53.618Z,2.72
2023-03-27T02:26:26.263Z,2.58
2023-03-27T02:29:07.981Z,4.10
2023-03-27T02:31:51.221Z,8.25
2023-03-27T02:34:51.981Z,10.63
2023-03-27T02:37:32.194Z,7.72
2023-03-27T02:40:13.956Z,9.68
2023-03-27T02:42:56.853Z,10.25
2023-03-27T02:45:32.527Z,9.63
2023-03-27T02:48:09.681Z,13.18
2023-03-27T02:50:44.412Z,11.90
2023-03-27T02:53:18.905Z,14.10
2023-03-27T02:58:30.769Z,12.05
2023-03-27T03:01:02.324Z,14.05
2023-03-27T03:03:37.696Z,14.65
2023-03-27T03:06:11.226Z,17.65
2023-03-27T03:08:41.778Z,14.63
2023-03-27T03:11:15.982Z,17.52
2023-03-27T03:13:48.451Z,15.68
2023-03-27T03:16:18.512Z,14.57
2023-03-27T03:18:48.385Z,14.10
2023-03-27T03:21:18.239Z,10.10
2023-03-27T03:23:57.838Z,14.38
2023-03-27T03:26:30.129Z,15.80
2023-03-27T03:29:02.530Z,13.88
2023-03-27T03:31:44.486Z,12.45
2023-03-27T03:34:16.392Z,12.43
2023-03-27T03:36:49.622Z,11.65
2023-03-27T03:39:20.134Z,15.82
2023-03-27T03:41:50.433Z,16.67
2023-03-27T03:44:22.985Z,14.32
2023-03-27T03:46:53.902Z,16.52
2023-03-27T03:49:23.821Z,21.33
2023-03-27T03:52:04.357Z,14.57
2023-03-27T03:54:38.792Z,14.18
2023-03-27T03:57:08.972Z,20.40
2023-03-27T03:59:41.599Z,17.23
2023-03-27T04:02:12.370Z,11.10
2023-03-27T04:04:44.290Z,17.80
2023-03-27T04:07:17.881Z,15.50
2023-03-27T04:09:47.720Z,20.08
2023-03-27T04:12:17.583Z,13.80
2023-03-27T04:14:50.029Z,13.93
2023-03-27T04:17:20.847Z,19.38
2023-03-27T04:19:50.713Z,11.20
2023-03-27T04:22:22.794Z,8.88
2023-03-27T04:24:53.769Z,14.88
2023-03-27T04:27:23.999Z,10.32
2023-03-27T04:29:56.437Z,8.15
2023-03-27T04:32:26.463Z,13.35
2023-03-27T04:34:57.034Z,15.27
2023-03-27T04:37:27.185Z,14.52
2023-03-27T04:39:58.439Z,10.40
2023-03-27T04:42:28.300Z,14.13
2023-03-27T04:45:01.653Z,14.50
2023-03-27T04:47:32.990Z,12.15
2023-03-27T04:50:02.919Z,7.60
2023-03-27T04:52:33.569Z,13.23
2023-03-27T04:55:04.986Z,16.98
2023-03-27T04:57:35.239Z,11.55
2023-03-27T05:00:16.276Z,10.98
2023-03-27T05:02:46.198Z,13.50
2023-03-27T05:05:17.416Z,10.18
2023-03-27T05:07:48.746Z,10.73
2023-03-27T05:10:21.754Z,8.07
2023-03-27T05:12:57.889Z,8.82
2023-03-27T05:15:32.558Z,11.88
2023-03-27T05:18:02.652Z,12.43
2023-03-27T05:20:32.686Z,13.02
2023-03-27T05:23:02.626Z,5.97
2023-03-27T05:25:33.882Z,10.48
2023-03-27T05:28:03.974Z,8.68
2023-03-27T05:30:36.518Z,13.30
2023-03-27T05:33:06.723Z,9.75
2023-03-27T05:35:37.948Z,9.23
2023-03-27T05:38:08.400Z,12.60
2023-03-27T05:40:39.416Z,10.18
2023-03-27T05:43:09.746Z,7.15
2023-03-27T05:45:42.143Z,13.32
2023-03-27T05:48:12.559Z,9.40
2023-03-27T05:50:42.424Z,9.88
2023-03-27T05:53:12.926Z,11.80
2023-03-27T05:55:42.866Z,9.43
2023-03-27T05:58:13.504Z,13.65
2023-03-27T06:00:46.805Z,10.40
2023-03-27T06:03:17.576Z,11.57
2023-03-27T06:05:49.036Z,11.60
2023-03-27T06:08:19.518Z,8.45
2023-03-27T06:10:49.320Z,13.00
2023-03-27T06:13:19.238Z,13.15
2023-03-27T06:15:51.757Z,8.35
2023-03-27T06:18:21.673Z,14.38
2023-03-27T06:20:51.971Z,9.70
2023-03-27T06:23:22.067Z,10.68
2023-03-27T06:25:53.181Z,8.38
2023-03-27T06:28:23.442Z,9.20
2023-03-27T06:30:57.733Z,11.95
2023-03-27T06:33:29.897Z,10.38
2023-03-27T06:36:00.901Z,14.07
2023-03-27T06:38:33.081Z,10.27
2023-03-27T06:41:04.390Z,8.27
2023-03-27T06:43:34.587Z,10.32
2023-03-27T06:46:09.778Z,10.40
2023-03-27T06:48:39.716Z,18.05
2023-03-27T06:51:09.741Z,7.85
2023-03-27T06:53:39.766Z,11.90
2023-03-27T06:56:11.477Z,10.82
2023-03-27T06:58:41.301Z,10.38
2023-03-27T07:01:13.872Z,7.70
2023-03-27T07:03:43.709Z,8.43
2023-03-27T07:06:13.529Z,5.40
2023-03-27T07:08:43.356Z,6.00
2023-03-27T07:11:13.346Z,10.80
2023-03-27T07:13:43.800Z,14.30
2023-03-27T07:16:16.465Z,6.00
2023-03-27T07:18:46.389Z,7.30
2023-03-27T07:21:16.614Z,6.45
2023-03-27T07:23:46.492Z,8.40
2023-03-27T07:26:17.186Z,6.10
2023-03-27T07:28:47.305Z,10.60
2023-03-27T07:31:36.532Z,5.03
2023-03-27T07:34:09.918Z,11.85
2023-03-27T07:36:39.841Z,7.15
2023-03-27T07:39:09.750Z,10.57
2023-03-27T07:41:39.613Z,5.57
2023-03-27T07:44:09.495Z,8.52
2023-03-27T07:46:42.077Z,5.93
2023-03-27T07:49:12.276Z,7.43
2023-03-27T07:51:42.614Z,12.07
2023-03-27T07:54:13.475Z,9.65
2023-03-27T07:56:43.667Z,7.88
2023-03-27T07:59:14.047Z,9.02
2023-03-27T08:01:46.456Z,12.85
2023-03-27T08:04:16.422Z,11.85
2023-03-27T08:06:46.456Z,9.02
2023-03-27T08:09:17.478Z,12.35
2023-03-27T08:11:47.325Z,11.27
2023-03-27T08:14:17.154Z,5.68
2023-03-27T08:16:49.808Z,7.25
2023-03-27T08:19:19.678Z,7.75
2023-03-27T08:21:49.515Z,8.30
2023-03-27T08:24:19.603Z,9.55
2023-03-27T08:26:49.587Z,9.23
2023-03-27T08:29:23.890Z,8.52
2023-03-27T08:31:56.335Z,6.72
2023-03-27T08:34:26.585Z,8.95
2023-03-27T08:36:56.725Z,4.78
2023-03-27T08:39:30.796Z,7.55
2023-03-27T08:42:03.149Z,5.68
2023-03-27T08:44:34.759Z,6.25
2023-03-27T08:47:12.089Z,6.75
2023-03-27T08:49:47.477Z,8.73
2023-03-27T08:52:19.740Z,4.50
2023-03-27T08:54:58.389Z,8.10
2023-03-27T08:57:32.702Z,10.80
2023-03-27T09:00:08.689Z,7.18
2023-03-27T09:02:48.495Z,9.93
2023-03-27T09:05:21.514Z,7.20
2023-03-27T09:07:59.304Z,7.63
2023-03-27T09:10:38.479Z,8.48
2023-03-27T09:13:15.362Z,8.65
2023-03-27T09:15:51.429Z,6.80
2023-03-27T09:18:27.541Z,3.45
2023-03-27T09:21:01.960Z,6.00
2023-03-27T09:23:36.228Z,5.95
2023-03-27T09:26:10.185Z,10.02
2023-03-27T09:28:50.890Z,8.23
2023-03-27T09:31:29.308Z,6.43
2023-03-27T09:34:05.533Z,5.70
2023-03-27T09:36:36.049Z,5.00
2023-03-27T09:39:08.877Z,10.25
2023-03-27T09:41:43.871Z,5.28
2023-03-27T09:44:18.056Z,3.65
2023-03-27T09:46:51.749Z,11.13
2023-03-27T09:49:24.593Z,4.10
2023-03-27T09:51:55.521Z,9.45
2023-03-27T09:54:28.951Z,7.35
2023-03-27T09:57:06.641Z,5.33
2023-03-27T09:59:38.511Z,7.32
2023-03-27T10:02:20.635Z,9.90
2023-03-27T10:05:04.440Z,7.90
2023-03-27T10:07:34.404Z,4.25
2023-03-27T10:10:12.019Z,5.97
2023-03-27T10:12:42.962Z,8.13
2023-03-27T10:15:34.882Z,6.38
2023-03-27T10:18:07.426Z,5.43
2023-03-27T10:20:41.451Z,4.80
2023-03-27T10:23:23.812Z,6.07
2023-03-27T10:25:55.836Z,4.88
2023-03-27T10:28:27.602Z,4.75
2023-03-27T10:31:02.010Z,3.92
2023-03-27T10:33:36.749Z,3.38
2023-03-27T10:36:12.400Z,7.65
2023-03-27T10:38:44.175Z,7.00
2023-03-27T10:41:28.167Z,4.75
2023-03-27T10:44:00.457Z,5.18
2023-03-27T10:46:32.891Z,3.53
2023-03-27T10:49:08.773Z,7.20
2023-03-27T10:51:50.180Z,3.78
2023-03-27T10:54:35.740Z,3.53
2023-03-27T10:57:09.024Z,7.35
2023-03-27T10:59:43.223Z,5.13
2023-03-27T11:02:19.552Z,7.45
2023-03-27T11:04:55.103Z,2.85
2023-03-27T11:07:37.887Z,6.30
2023-03-27T11:10:15.557Z,11.80
2023-03-27T11:12:51.130Z,6.85
2023-03-27T11:15:24.872Z,4.97
2023-03-27T11:18:00.376Z,5.80
2023-03-27T11:20:34.904Z,4.78
2023-03-27T11:25:45.046Z,6.60
2023-03-27T11:28:23.989Z,3.67
2023-03-27T11:30:58.686Z,4.20
2023-03-27T11:33:47.273Z,7.10
2023-03-27T11:36:37.766Z,5.20
2023-03-27T11:39:19.125Z,4.72
2023-03-27T11:41:54.188Z,3.70
2023-03-27T11:44:24.198Z,4.65
2023-03-27T11:47:12.202Z,5.18
2023-03-27T11:49:55.840Z,5.05
2023-03-27T11:52:39.529Z,4.32
2023-03-27T11:55:21.919Z,5.38
2023-03-27T11:58:04.402Z,4.38
2023-03-27T12:00:37.452Z,3.60
2023-03-27T12:03:43.697Z,8.77
2023-03-27T12:06:19.917Z,2.42
2023-03-27T12:09:13.261Z,4.00
2023-03-27T12:11:52.785Z,7.82
2023-03-27T12:14:40.414Z,7.30
2023-03-27T12:17:37.209Z,5.82
2023-03-27T12:20:43.637Z,2.38
2023-03-27T12:24:00.167Z,6.28
2023-03-27T12:26:52.752Z,2.90
2023-03-27T12:29:35.414Z,2.67
2023-03-27T12:32:21.025Z,3.03
2023-03-27T12:34:56.682Z,3.60
2023-03-27T12:37:31.189Z,3.55
2023-03-27T12:42:52.860Z,4.82
2023-03-27T12:45:26.984Z,3.63
2023-03-27T12:48:22.027Z,5.80
2023-03-27T12:51:00.252Z,2.65
2023-03-27T12:53:59.449Z,4.15
2023-03-27T12:56:37.719Z,2.95
2023-03-27T12:59:23.469Z,5.65
2023-03-27T13:02:23.350Z,3.42
2023-03-27T13:05:26.824Z,2.60
2023-03-27T13:08:21.265Z,4.72
2023-03-27T13:11:00.807Z,3.70
2023-03-27T13:13:56.588Z,3.30
2023-03-27T13:16:42.259Z,3.53
2023-03-27T13:19:34.119Z,2.05
2023-03-27T13:22:37.022Z,5.80
2023-03-27T13:25:21.185Z,2.50
2023-03-27T13:28:10.224Z,6.53
2023-03-27T13:30:46.742Z,6.97
2023-03-27T13:33:26.081Z,4.65
2023-03-27T13:36:08.862Z,4.20
2023-03-27T13:39:04.844Z,5.80
2023-03-27T13:42:07.374Z,7.97
2023-03-27T13:44:48.200Z,4.35
2023-03-27T13:47:46.763Z,3.22
2023-03-27T13:50:41.704Z,3.58
2023-03-27T13:53:25.670Z,5.22
2023-03-27T13:56:19.897Z,3.45
2023-03-27T13:59:15.327Z,6.50
2023-03-27T14:01:57.333Z,4.18
2023-03-27T14:04:58.569Z,5.63
2023-03-27T14:07:58.781Z,5.72
2023-03-27T14:11:01.511Z,3.47
2023-03-27T14:13:44.873Z,2.83
2023-03-27T14:16:38.738Z,3.45
2023-03-27T14:19:31.421Z,4.60
2023-03-27T14:22:04.937Z,3.78
2023-03-27T14:24:43.616Z,8.00
2023-03-27T14:27:18.711Z,3.83
2023-03-27T14:29:50.515Z,5.85
2023-03-27T14:32:20.755Z,3.13
2023-03-27T14:34:55.165Z,4.80
2023-03-27T14:40:07.250Z,10.85
2023-03-27T14:42:37.551Z,5.63
2023-03-27T14:45:12.779Z,6.28
2023-03-27T14:47:43.192Z,4.30
2023-03-27T14:50:16.865Z,5.80
2023-03-27T14:52:46.932Z,6.27
2023-03-27T14:55:19.794Z,7.00
2023-03-27T14:57:52.220Z,5.93
2023-03-27T15:00:25.984Z,6.88
2023-03-27T15:03:11.547Z,5.75
2023-03-27T15:05:57.702Z,6.55
2023-03-27T15:08:29.583Z,5.97
2023-03-27T15:11:02.541Z,5.28
2023-03-27T15:13:38.138Z,2.47
2023-03-27T15:16:12.067Z,3.30
2023-03-27T15:18:53.764Z,4.47
2023-03-27T15:21:34.901Z,3.05
2023-03-27T15:24:10.467Z,3.10
2023-03-27T15:26:43.910Z,3.67
2023-03-27T15:29:20.824Z,2.85
2023-03-27T15:31:52.894Z,4.53
2023-03-27T15:34:34.206Z,4.13
2023-03-27T15:37:06.881Z,4.75
2023-03-27T15:39:39.573Z,11.05
2023-03-27T15:42:16.495Z,3.95
2023-03-27T15:44:46.354Z,3.28
2023-03-27T15:47:28.574Z,5.65
2023-03-27T15:50:18.108Z,5.60
2023-03-27T15:52:52.136Z,2.72
2023-03-27T15:55:37.667Z,4.22
2023-03-27T15:58:23.554Z,4.15
2023-03-27T16:00:55.894Z,4.75
2023-03-27T16:03:28.588Z,2.60
2023-03-27T16:06:00.532Z,2.40
2023-03-27T16:08:34.162Z,3.80
2023-03-27T16:11:04.970Z,3.72
2023-03-27T16:13:54.860Z,4.95
2023-03-27T16:16:28.122Z,6.80
2023-03-27T16:19:02.575Z,5.38
2023-03-27T16:21:36.648Z,5.05
2023-03-27T16:24:06.997Z,4.25
2023-03-27T16:26:36.884Z,2.65
2023-03-27T16:29:09.302Z,3.03
2023-03-27T16:31:39.190Z,2.78
2023-03-27T16:34:22.423Z,3.47
2023-03-27T16:36:53.529Z,3.45
2023-03-27T16:39:23.488Z,3.10
2023-03-27T16:41:53.424Z,4.85
2023-03-27T16:44:25.892Z,2.50
2023-03-27T16:46:55.790Z,3.65
2023-03-27T16:49:25.712Z,2.60
2023-03-27T16:51:55.674Z,4.20
2023-03-27T16:54:25.806Z,3.22
2023-03-27T16:56:56.076Z,5.38
2023-03-27T16:59:29.153Z,6.28
2023-03-27T17:01:59.277Z,4.85
2023-03-27T17:04:29.374Z,3.83
2023-03-27T17:06:59.241Z,4.97
2023-03-27T17:09:29.162Z,3.80
2023-03-27T17:11:59.085Z,5.40
2023-03-27T17:14:31.573Z,2.58
2023-03-27T17:17:01.489Z,3.50
2023-03-27T17:19:31.396Z,3.45
2023-03-27T17:22:01.218Z,4.10
2023-03-27T17:24:32.525Z,6.10
2023-03-27T17:27:03.642Z,2.78
2023-03-27T17:29:36.043Z,6.43
2023-03-27T17:32:06.124Z,4.45
2023-03-27T17:34:36.105Z,2.88
2023-03-27T17:37:06.198Z,3.53
2023-03-27T17:39:36.378Z,2.78
2023-03-27T17:42:06.872Z,6.70
2023-03-27T17:44:39.735Z,5.07
2023-03-27T17:47:10.337Z,5.90
2023-03-27T17:49:40.943Z,5.65
2023-03-27T17:52:12.109Z,3.17
2023-03-27T17:54:42.375Z,5.47
2023-03-27T17:57:12.373Z,4.90
2023-03-27T17:59:46.529Z,4.45
2023-03-27T18:02:20.072Z,3.53
2023-03-27T18:04:52.431Z,5.17
2023-03-27T18:07:22.558Z,6.00
2023-03-27T18:09:52.933Z,3.40
2023-03-27T18:12:22.959Z,6.47
2023-03-27T18:14:55.532Z,6.18
2023-03-27T18:17:26.162Z,7.53
2023-03-27T18:19:56.286Z,9.63
2023-03-27T18:22:26.201Z,6.60
2023-03-27T18:24:56.029Z,9.82
2023-03-27T18:27:25.962Z,7.32
2023-03-27T18:29:58.541Z,7.75
2023-03-27T18:32:29.565Z,9.25
2023-03-27T18:34:59.547Z,6.68
2023-03-27T18:37:29.470Z,8.40
2023-03-27T18:39:59.333Z,8.30
2023-03-27T18:42:29.676Z,7.50
2023-03-27T18:45:02.116Z,6.22
2023-03-27T18:47:32.065Z,9.85
2023-03-27T18:50:02.095Z,6.05
2023-03-27T18:52:32.016Z,6.05
2023-03-27T18:55:02.340Z,6.57
2023-03-27T18:57:32.254Z,8.15
2023-03-27T19:00:07.297Z,6.28
2023-03-27T19:02:37.469Z,7.75
2023-03-27T19:05:08.676Z,6.55
2023-03-27T19:07:44.694Z,6.03
2023-03-27T19:10:15.497Z,6.25
2023-03-27T19:12:45.352Z,8.43
2023-03-27T19:15:20.258Z,7.60
2023-03-27T19:17:50.512Z,6.05
2023-03-27T19:20:20.711Z,5.97
2023-03-27T19:22:50.925Z,8.00
2023-03-27T19:25:21.087Z,5.82
2023-03-27T19:27:50.938Z,5.43
2023-03-27T19:30:23.585Z,3.90
2023-03-27T19:32:53.897Z,4.30
2023-03-27T19:35:23.816Z,5.35
2023-03-27T19:37:54.349Z,5.40
2023-03-27T19:40:24.336Z,7.32
2023-03-27T19:42:54.367Z,4.53
2023-03-27T19:45:26.801Z,4.97
2023-03-27T19:47:56.693Z,5.40
2023-03-27T19:50:27.153Z,4.32
2023-03-27T19:53:07.554Z,4.00
2023-03-27T19:55:38.734Z,6.55
2023-03-27T19:58:08.657Z,4.38
2023-03-27T20:00:41.160Z,5.93
2023-03-27T20:03:16.655Z,5.95
2023-03-27T20:05:50.345Z,5.07
2023-03-27T20:08:21.422Z,5.38
2023-03-27T20:10:52.014Z,4.80
2023-03-27T20:13:22.417Z,6.22
2023-03-27T20:15:55.981Z,4.47
2023-03-27T20:18:25.943Z,3.87
2023-03-27T20:20:56.212Z,5.72
2023-03-27T20:23:32.548Z,7.32
2023-03-27T20:26:03.386Z,7.97
2023-03-27T20:28:33.233Z,3.97
2023-03-27T20:31:08.786Z,6.53
2023-03-27T20:33:38.724Z,4.25
2023-03-27T20:36:09.116Z,7.25
2023-03-27T20:38:39.004Z,3.70
2023-03-27T20:41:10.903Z,3.22
2023-03-27T20:43:44.897Z,3.70
2023-03-27T20:46:17.464Z,8.02
2023-03-27T20:48:53.848Z,5.55
2023-03-27T20:51:25.183Z,4.05
2023-03-27T20:53:58.236Z,4.30
2023-03-27T20:56:28.319Z,2.70
2023-03-27T20:58:58.165Z,4.10
2023-03-27T21:01:34.344Z,2.08
2023-03-27T21:04:04.269Z,3.08
2023-03-27T21:06:34.071Z,3.50
2023-03-27T21:09:04.694Z,2.05
2023-03-27T21:11:34.627Z,5.00
2023-03-27T21:14:04.740Z,2.20
2023-03-27T21:16:37.777Z,5.22
2023-03-27T21:19:07.704Z,3.97
2023-03-27T21:21:37.547Z,2.88
2023-03-27T21:24:08.051Z,2.92
2023-03-27T21:26:38.303Z,3.35
2023-03-27T21:29:10.759Z,2.80
2023-03-27T21:31:44.257Z,4.38
2023-03-27T21:34:14.165Z,4.00
2023-03-27T21:36:44.085Z,5.20
2023-03-27T21:39:13.965Z,3.72
2023-03-27T21:41:43.843Z,2.97
2023-03-27T21:44:13.756Z,2.70
2023-03-27T21:46:46.263Z,4.63
2023-03-27T21:49:16.132Z,3.00
2023-03-27T21:51:46.497Z,5.10
2023-03-27T21:54:16.377Z,3.22
2023-03-27T21:56:46.216Z,3.40
2023-03-27T21:59:16.223Z,2.40
2023-03-27T22:01:48.853Z,6.22
2023-03-27T22:04:20.553Z,2.90
2023-03-27T22:06:51.526Z,3.72
2023-03-27T22:09:21.624Z,4.75
2023-03-27T22:11:51.772Z,6.28
2023-03-27T22:14:22.542Z,4.90
2023-03-27T22:16:55.308Z,3.83
2023-03-27T22:19:25.356Z,3.45
2023-03-27T22:21:55.205Z,3.70
2023-03-27T22:24:25.562Z,4.82
2023-03-27T22:26:55.923Z,5.00
2023-03-27T22:29:25.772Z,5.55
2023-03-27T22:31:58.154Z,5.70
2023-03-27T22:34:28.522Z,3.83
2023-03-27T22:36:58.360Z,4.22
2023-03-27T22:39:28.261Z,4.90
2023-03-27T22:41:58.240Z,4.55
2023-03-27T22:44:28.505Z,3.95
2023-03-27T22:47:01.661Z,6.63
2023-03-27T22:49:31.583Z,4.53
2023-03-27T22:52:01.523Z,5.35
2023-03-27T22:54:31.615Z,6.25
2023-03-27T22:57:01.629Z,7.53
2023-03-27T22:59:31.605Z,4.15
2023-03-27T23:02:04.092Z,7.60
2023-03-27T23:04:34.794Z,8.40
2023-03-27T23:07:04.980Z,4.25
2023-03-27T23:09:35.397Z,7.82
2023-03-27T23:12:05.484Z,5.13
2023-03-27T23:14:35.860Z,3.75
2023-03-27T23:17:08.422Z,3.05
2023-03-27T23:19:38.533Z,3.83
2023-03-27T23:22:08.366Z,5.88
2023-03-27T23:24:38.200Z,4.53
2023-03-27T23:27:08.597Z,4.70
2023-03-27T23:29:38.505Z,6.38
2023-03-27T23:32:11.080Z,3.47
2023-03-27T23:34:41.013Z,4.43
2023-03-27T23:37:10.813Z,6.20
2023-03-27T23:39:40.625Z,4.90
2023-03-27T23:42:10.474Z,3.10
2023-03-27T23:44:40.441Z,4.38
2023-03-27T23:47:12.980Z,8.05
2023-03-27T23:49:42.931Z,3.75
2023-03-27T23:52:13.797Z,9.00
2023-03-27T23:54:43.667Z,4.18
2023-03-27T23:57:13.519Z,5.93
2023-03-27T23:59:43.401Z,8.05
